createdAt,value
2019-01-15T00:03:15.484Z,1.20
2019-01-15T00:08:21.084Z,1.30
2019-01-15T00:13:26.478Z,1.30
2019-01-15T00:18:31.883Z,1.30
2019-01-15T00:23:37.236Z,1.30
2019-01-15T00:28:42.634Z,1.30
2019-01-15T00:33:47.888Z,1.20
2019-01-15T00:38:53.263Z,1.20
2019-01-15T00:43:58.785Z,1.20
2019-01-15T00:49:04.549Z,1.10
2019-01-15T00:54:10.167Z,1.20
2019-01-15T00:59:15.635Z,1.20
2019-01-15T01:04:21.091Z,1.20
2019-01-15T01:09:26.724Z,1.20
2019-01-15T01:14:32.187Z,1.20
2019-01-15T01:19:40.313Z,1.20
2019-01-15T01:24:45.781Z,1.30
2019-01-15T01:29:51.241Z,1.30
2019-01-15T01:34:56.698Z,1.30
2019-01-15T01:40:02.169Z,1.40
2019-01-15T01:45:09.226Z,1.40
2019-01-15T01:50:15.159Z,1.40
2019-01-15T01:55:20.452Z,1.50
2019-01-15T02:00:25.787Z,1.50
2019-01-15T02:05:31.092Z,1.50
2019-01-15T02:10:36.395Z,1.50
2019-01-15T02:15:41.787Z,1.50
2019-01-15T02:20:47.175Z,1.50
2019-01-15T02:25:52.575Z,1.60
2019-01-15T02:30:57.927Z,1.60
2019-01-15T02:36:03.254Z,1.60
2019-01-15T02:41:09.654Z,1.60
2019-01-15T02:46:15.035Z,1.50
2019-01-15T02:51:20.355Z,1.60
2019-01-15T02:56:25.762Z,1.50
2019-01-15T03:01:31.372Z,1.50
2019-01-15T03:06:36.886Z,1.50
2019-01-15T03:11:42.354Z,1.50
2019-01-15T03:16:48.034Z,1.50
2019-01-15T03:21:53.525Z,1.60
2019-01-15T03:26:59.062Z,1.50
2019-01-15T03:32:04.372Z,1.60
2019-01-15T03:37:10.014Z,1.50
2019-01-15T03:42:15.348Z,1.50
2019-01-15T03:47:20.692Z,1.60
2019-01-15T03:52:26.010Z,1.50
2019-01-15T03:57:31.428Z,1.50
2019-01-15T04:02:36.864Z,1.50
2019-01-15T04:07:42.998Z,1.50
2019-01-15T04:12:48.348Z,1.50
2019-01-15T04:17:54.109Z,1.50
2019-01-15T04:23:19.567Z,1.50
2019-01-15T04:28:24.965Z,1.70
2019-01-15T04:33:30.381Z,1.50
2019-01-15T04:38:35.850Z,1.50
2019-01-15T04:43:41.255Z,1.40
2019-01-15T04:48:46.575Z,1.40
2019-01-15T04:53:51.863Z,1.40
2019-01-15T04:58:57.302Z,1.40
2019-01-15T05:04:02.682Z,1.40
2019-01-15T05:09:08.951Z,1.40
2019-01-15T05:14:14.297Z,1.40
2019-01-15T05:19:19.652Z,1.40
2019-01-15T05:24:24.999Z,1.40
2019-01-15T05:29:30.415Z,1.40
2019-01-15T05:34:35.775Z,1.30
2019-01-15T05:39:41.162Z,1.40
2019-01-15T05:44:47.564Z,1.30
2019-01-15T05:49:53.020Z,1.30
2019-01-15T05:54:58.389Z,1.30
2019-01-15T06:00:04.894Z,1.30
2019-01-15T06:05:11.345Z,1.30
2019-01-15T06:10:16.672Z,1.30
2019-01-15T06:15:21.977Z,1.30
2019-01-15T06:20:27.461Z,1.30
2019-01-15T06:25:32.811Z,1.30
2019-01-15T06:30:38.133Z,1.30
2019-01-15T06:35:43.500Z,1.30
2019-01-15T06:40:48.852Z,1.30
2019-01-15T06:45:54.432Z,1.30
2019-01-15T06:50:59.733Z,1.40
2019-01-15T06:56:05.375Z,1.40
2019-01-15T07:01:10.832Z,1.40
2019-01-15T07:06:16.198Z,1.40
2019-01-15T07:11:21.522Z,1.40
2019-01-15T07:16:26.920Z,1.40
2019-01-15T07:21:32.598Z,1.40
2019-01-15T07:26:37.927Z,1.40
2019-01-15T07:31:43.367Z,1.40
2019-01-15T07:36:48.699Z,1.40
2019-01-15T07:41:54.030Z,1.40
2019-01-15T07:46:59.452Z,1.50
2019-01-15T07:52:05.375Z,1.40
2019-01-15T07:57:10.727Z,1.40
2019-01-15T08:02:16.946Z,1.40
2019-01-15T08:07:22.286Z,1.50
2019-01-15T08:12:27.739Z,1.60
2019-01-15T08:17:33.068Z,1.60
2019-01-15T08:22:38.424Z,1.70
2019-01-15T08:27:43.839Z,1.70
2019-01-15T08:32:49.533Z,1.70
2019-01-15T08:37:56.088Z,1.70
2019-01-15T08:43:01.816Z,1.70
2019-01-15T08:48:19.778Z,1.80
2019-01-15T08:53:26.187Z,1.80
2019-01-15T08:58:32.809Z,1.80
2019-01-15T09:03:38.384Z,1.80
2019-01-15T09:08:46.366Z,1.80
2019-01-15T09:13:52.206Z,1.90
2019-01-15T09:18:59.193Z,1.90
2019-01-15T09:24:06.266Z,2.00
2019-01-15T09:29:12.661Z,2.00
2019-01-15T09:34:18.927Z,2.00
2019-01-15T09:39:25.935Z,2.00
2019-01-15T09:44:34.286Z,2.10
2019-01-15T09:49:39.771Z,2.20
2019-01-15T09:54:45.182Z,2.20
2019-01-15T09:59:51.455Z,2.30
2019-01-15T10:04:57.137Z,2.20
2019-01-15T10:10:03.308Z,2.30
2019-01-15T10:15:10.876Z,2.40
2019-01-15T10:20:19.268Z,2.50
2019-01-15T10:25:26.557Z,2.50
2019-01-15T10:30:43.701Z,2.50
2019-01-15T10:35:58.088Z,2.60
2019-01-15T10:41:03.473Z,2.50
2019-01-15T10:46:08.919Z,2.50
2019-01-15T10:51:16.827Z,2.50
2019-01-15T10:56:22.309Z,2.50
2019-01-15T11:01:27.682Z,2.50
2019-01-15T11:06:33.008Z,2.50
2019-01-15T11:11:39.910Z,2.50
2019-01-15T11:16:45.748Z,2.50
2019-01-15T11:21:51.512Z,2.60
2019-01-15T11:26:56.885Z,2.60
2019-01-15T11:32:05.445Z,2.60
2019-01-15T11:37:11.082Z,2.60
2019-01-15T11:42:16.567Z,2.70
2019-01-15T11:47:22.008Z,2.70
2019-01-15T11:52:27.456Z,2.80
2019-01-15T11:57:32.837Z,2.80
2019-01-15T12:03:09.613Z,2.90
2019-01-15T12:08:33.870Z,2.90
2019-01-15T12:13:49.587Z,3.00
2019-01-15T12:19:07.198Z,3.00
2019-01-15T12:24:27.185Z,3.10
2019-01-15T12:29:43.268Z,3.20
2019-01-15T12:35:10.358Z,3.20
2019-01-15T12:40:47.136Z,3.20
2019-01-15T12:46:23.371Z,3.30
2019-01-15T12:51:50.708Z,3.30
2019-01-15T12:57:18.998Z,3.30
2019-01-15T13:02:39.841Z,3.30
2019-01-15T13:07:59.451Z,3.30
2019-01-15T13:13:23.712Z,3.30
2019-01-15T13:18:46.635Z,3.50
2019-01-15T13:24:11.072Z,3.50
2019-01-15T13:29:32.991Z,3.50
2019-01-15T13:35:06.520Z,3.60
2019-01-15T13:40:29.995Z,3.60
2019-01-15T13:46:00.607Z,3.60
2019-01-15T13:51:19.079Z,3.70
2019-01-15T13:56:42.426Z,3.90
2019-01-15T14:01:56.582Z,6.70
2019-01-15T14:07:17.793Z,3.90
2019-01-15T14:12:42.259Z,3.80
2019-01-15T14:18:06.365Z,3.80
2019-01-15T14:23:29.428Z,3.70
2019-01-15T14:28:53.880Z,3.70
2019-01-15T14:34:17.003Z,3.70
2019-01-15T14:39:41.315Z,3.70
2019-01-15T14:45:03.035Z,3.70
2019-01-15T14:50:28.081Z,3.70
2019-01-15T14:55:55.283Z,3.70
2019-01-15T15:01:19.545Z,3.70
2019-01-15T15:06:42.333Z,3.70
2019-01-15T15:12:01.897Z,3.70
2019-01-15T15:17:29.414Z,3.70
2019-01-15T15:22:58.627Z,3.70
2019-01-15T15:28:18.946Z,3.70
2019-01-15T15:33:42.263Z,3.80
2019-01-15T15:39:12.381Z,3.70
2019-01-15T15:44:41.357Z,3.70
2019-01-15T15:50:12.066Z,3.70
2019-01-15T15:55:35.029Z,3.70
2019-01-15T16:01:04.598Z,3.70
2019-01-15T16:06:27.974Z,3.70
2019-01-15T16:12:07.690Z,3.70
2019-01-15T16:17:34.829Z,3.70
2019-01-15T16:23:05.500Z,3.70
2019-01-15T16:28:32.873Z,3.70
2019-01-15T16:34:00.474Z,3.80
2019-01-15T16:39:48.001Z,3.80
2019-01-15T16:45:28.385Z,3.80
2019-01-15T16:51:05.248Z,3.80
2019-01-15T16:56:30.517Z,3.80
2019-01-15T17:01:51.514Z,3.80
2019-01-15T17:07:14.707Z,3.80
2019-01-15T17:12:35.715Z,3.70
2019-01-15T17:18:06.438Z,3.80
2019-01-15T17:23:40.007Z,3.90
2019-01-15T17:29:13.396Z,3.90
2019-01-15T17:34:35.863Z,3.80
2019-01-15T17:40:00.003Z,3.80
2019-01-15T17:45:30.840Z,3.80
2019-01-15T17:50:59.992Z,3.80
2019-01-15T17:56:19.063Z,3.80
2019-01-15T18:01:35.379Z,3.80
2019-01-15T18:07:02.591Z,3.90
2019-01-15T18:12:25.554Z,3.80
2019-01-15T18:17:49.826Z,3.80
2019-01-15T18:23:26.221Z,3.80
2019-01-15T18:28:49.323Z,3.80
2019-01-15T18:34:22.311Z,3.80
2019-01-15T18:39:45.351Z,3.70
2019-01-15T18:45:00.951Z,3.70
2019-01-15T18:50:26.523Z,3.80
2019-01-15T18:55:49.511Z,3.80
2019-01-15T19:01:04.594Z,3.80
2019-01-15T19:06:43.203Z,3.80
2019-01-15T19:12:06.848Z,3.70
2019-01-15T19:17:30.110Z,3.80
2019-01-15T19:22:57.369Z,3.80
2019-01-15T19:28:10.402Z,3.80
2019-01-15T19:33:25.209Z,3.70
2019-01-15T19:38:52.555Z,3.80
2019-01-15T19:44:15.579Z,3.80
2019-01-15T19:49:42.739Z,3.80
2019-01-15T19:55:07.104Z,3.80
2019-01-15T20:00:23.067Z,3.90
2019-01-15T20:05:57.264Z,3.80
2019-01-15T20:11:25.534Z,3.80
2019-01-15T20:16:48.517Z,3.80
2019-01-15T20:22:18.956Z,3.80
2019-01-15T20:27:55.935Z,3.80
2019-01-15T20:33:13.918Z,3.80
2019-01-15T20:38:41.094Z,3.80
2019-01-15T20:44:14.363Z,3.80
2019-01-15T20:49:37.787Z,3.80
2019-01-15T20:54:58.239Z,3.80
2019-01-15T21:00:29.483Z,3.80
2019-01-15T21:05:47.330Z,3.80
2019-01-15T21:11:11.652Z,3.90
2019-01-15T21:16:39.941Z,3.80
2019-01-15T21:22:04.769Z,3.80
2019-01-15T21:27:39.203Z,3.90
2019-01-15T21:33:05.199Z,3.80
2019-01-15T21:38:32.503Z,6.00
2019-01-15T21:44:00.383Z,5.40
2019-01-15T21:49:40.773Z,3.90
2019-01-15T21:55:04.996Z,3.80
2019-01-15T22:00:30.067Z,7.30
2019-01-15T22:05:45.308Z,3.80
2019-01-15T22:11:22.602Z,3.80
2019-01-15T22:16:41.998Z,3.80
2019-01-15T22:22:06.559Z,3.80
2019-01-15T22:27:31.826Z,3.80
2019-01-15T22:33:06.207Z,3.80
2019-01-15T22:38:32.955Z,3.80
2019-01-15T22:43:56.935Z,3.80
2019-01-15T22:49:22.547Z,3.80
2019-01-15T22:54:59.362Z,3.80
2019-01-15T23:00:32.165Z,3.80
2019-01-15T23:05:58.106Z,3.80
2019-01-15T23:11:31.172Z,3.80
2019-01-15T23:16:48.231Z,3.80
2019-01-15T23:22:12.359Z,3.70
2019-01-15T23:27:26.859Z,3.70
2019-01-15T23:32:51.827Z,3.70
2019-01-15T23:38:28.170Z,3.80
2019-01-15T23:43:58.808Z,3.80
2019-01-15T23:49:20.743Z,3.80
2019-01-15T23:54:58.228Z,3.80
